Gogerbank, United Kingdom

6:18 AM GMT on January 24, 2017 (GMT +0000)
Buie Brae | | Change Station

Elev 146 ft 55.96 °N, 3.41 °W | Updated 23 seconds ago

Mostly Cloudy
Mostly Cloudy
46.4 °F
Feels Like 46 °F
N
0.0
Wind Variable Wind from East
Gusts 0.0 mph

Today
High -- | Low -- °F
--% Chance of Precip.
Yesterday
High -- | Low -- °F
Precip. -- in
Pressure 30.06 in
Visibility 6.2 miles
Clouds Scattered Clouds 1900 ft
Mostly Cloudy 4800 ft
Windchill 46 °F
Dew Point 42 °F
Humidity 83%
Rainfall 0.00 in
Snow Depth Not available.
8:21 AM 4:30 PM
Waning Crescent, 13% visible
METAR EGPH 240550Z 23007KT 160V270 9999 SCT019 BKN048 08/05 Q1018
Pressure 30.06 in
Visibility 6.2 miles
Clouds Scattered Clouds 1900 ft
Mostly Cloudy 4800 ft
Windchill 46 °F
Dew Point 42 °F
Humidity 83%
Rainfall 0.00 in
Snow Depth Not available.
8:21 AM 4:30 PM
Waning Crescent, 13% visible
METAR EGPH 240550Z 23007KT 160V270 9999 SCT019 BKN048 08/05 Q1018

Get Your Daily Forecast Email!

Thanks for signing up!

Be on the lookout for a verification email in your inbox.

You'll start receiving the daily forecast at 8 AM.

×

10-Day Weather Forecast

×

Almanac

Astronomy

Jan. 24, 2017 Rise Set
Actual Time
Civil Twilight
Nautical Twilight
Astronomical Twilight
Moon
Length of Visible Light
Length of Day
Tomorrow will be .
, % of the Moon is Illuminated

Today's Extremes

Country Highs Country Lows

Community

WunderPhotos

Upload Photos

1,962,540 photos uploaded!

WunderBlog® & News

Nearby

Air Quality

  Air Quality AQ Index Pollutant
Not available.

Snow Depth

Station Depth Elevation

Earthquake Activity

City Distance Mag. Time & Date
Minimum magnitude displayed is 2.5.

Coastal Water Temperatures

Place Temperature

Stations

Nearby Weather Stations

Station Location Temp. Windchill Dew Point Humidity Wind Precip. Elev Updated Type